createdAt,value
2024-01-12T00:00:22.033Z,102456.94
2024-01-12T00:02:48.594Z,102456.50
2024-01-12T00:05:15.303Z,102456.50
2024-01-12T00:07:41.872Z,102461.38
2024-01-12T00:10:09.754Z,102464.19
2024-01-12T00:12:36.153Z,102468.63
2024-01-12T00:15:04.155Z,102466.84
2024-01-12T00:17:30.799Z,102453.09
2024-01-12T00:19:57.298Z,102450.84
2024-01-12T00:22:23.754Z,102443.81
2024-01-12T00:24:50.253Z,102437.44
2024-01-12T00:27:16.708Z,102443.09
2024-01-12T00:29:43.208Z,102439.09
2024-01-12T00:32:09.641Z,102445.97
2024-01-12T00:34:36.088Z,102442.88
2024-01-12T00:37:02.659Z,102447.28
2024-01-12T00:39:29.064Z,102440.38
2024-01-12T00:41:55.655Z,102429.00
2024-01-12T00:44:23.166Z,102435.31
2024-01-12T00:46:52.115Z,102434.81
2024-01-12T00:49:20.159Z,102432.69
2024-01-12T00:51:47.543Z,102436.47
2024-01-12T00:54:14.346Z,102436.63
2024-01-12T00:56:41.151Z,102437.31
2024-01-12T00:59:08.257Z,102443.97
2024-01-12T01:01:35.567Z,102446.31
2024-01-12T01:04:02.307Z,102444.81
2024-01-12T01:06:29.258Z,102435.53
2024-01-12T01:08:55.881Z,102449.41
2024-01-12T01:11:22.549Z,102451.69
2024-01-12T01:13:49.097Z,102449.06
2024-01-12T01:16:15.509Z,102449.41
2024-01-12T01:18:42.236Z,102459.00
2024-01-12T01:21:08.849Z,102441.34
2024-01-12T01:23:35.552Z,102448.69
2024-01-12T01:26:02.042Z,102447.28
2024-01-12T01:28:28.465Z,102446.78
2024-01-12T01:30:55.090Z,102446.28
2024-01-12T01:33:21.639Z,102447.84
2024-01-12T01:35:48.143Z,102448.47
2024-01-12T01:38:14.680Z,102458.66
2024-01-12T01:40:41.267Z,102451.03
2024-01-12T01:43:09.746Z,102459.94
2024-01-12T01:45:37.452Z,102449.88
2024-01-12T01:48:07.815Z,102447.41
2024-01-12T01:50:35.604Z,102453.44
2024-01-12T01:53:03.767Z,102451.75
2024-01-12T01:55:31.749Z,102449.84
2024-01-12T01:58:01.070Z,102451.69
2024-01-12T02:00:27.775Z,102454.31
2024-01-12T02:02:55.134Z,102456.28
2024-01-12T02:05:23.333Z,102461.84
2024-01-12T02:07:49.728Z,102456.88
2024-01-12T02:10:16.139Z,102452.81
2024-01-12T02:12:42.864Z,102453.16
2024-01-12T02:15:10.783Z,102446.28
2024-01-12T02:17:37.828Z,102448.41
2024-01-12T02:20:04.814Z,102452.31
2024-01-12T02:26:17.501Z,102457.44
2024-01-12T02:28:44.127Z,102460.50
2024-01-12T02:31:11.426Z,102457.03
2024-01-12T02:33:37.767Z,102453.25
2024-01-12T02:36:04.461Z,102452.41
2024-01-12T02:38:31.413Z,102444.94
2024-01-12T02:40:57.838Z,102440.88
2024-01-12T02:43:24.259Z,102444.00
2024-01-12T02:45:50.722Z,102446.84
2024-01-12T02:48:17.185Z,102435.28
2024-01-12T02:50:43.771Z,102438.22
2024-01-12T02:53:10.377Z,102438.31
2024-01-12T02:55:36.785Z,102433.25
2024-01-12T02:58:03.286Z,102429.78
2024-01-12T03:00:31.860Z,102421.09
2024-01-12T03:02:58.661Z,102414.38
2024-01-12T03:05:25.221Z,102420.81
2024-01-12T03:07:51.650Z,102420.91
2024-01-12T03:10:18.631Z,102411.22
2024-01-12T03:12:45.040Z,102411.19
2024-01-12T03:15:11.452Z,102407.63
2024-01-12T03:17:38.151Z,102412.13
2024-01-12T03:20:06.259Z,102414.25
2024-01-12T03:22:32.813Z,102411.53
2024-01-12T03:24:59.236Z,102415.31
2024-01-12T03:27:25.954Z,102412.63
2024-01-12T03:29:52.478Z,102412.22
2024-01-12T03:32:19.113Z,102415.72
2024-01-12T03:34:45.605Z,102412.66
2024-01-12T03:37:12.091Z,102409.03
2024-01-12T03:39:38.501Z,102398.72
2024-01-12T03:42:05.395Z,102391.59
2024-01-12T03:44:31.898Z,102401.63
2024-01-12T03:46:58.353Z,102408.97
2024-01-12T03:49:24.903Z,102413.19
2024-01-12T03:51:58.159Z,102399.13
2024-01-12T03:54:40.628Z,102404.19
2024-01-12T03:57:07.016Z,102398.38
2024-01-12T03:59:33.827Z,102394.19
2024-01-12T04:02:00.235Z,102399.56
2024-01-12T04:04:26.796Z,102382.06
2024-01-12T04:06:53.243Z,102389.28
2024-01-12T04:09:19.772Z,102388.81
2024-01-12T04:11:46.111Z,102390.28
2024-01-12T04:14:13.503Z,102395.25
2024-01-12T04:16:40.052Z,102388.97
2024-01-12T04:19:06.763Z,102396.41
2024-01-12T04:21:33.201Z,102387.47
2024-01-12T04:24:01.233Z,102389.97
2024-01-12T04:26:27.761Z,102394.94
2024-01-12T04:28:54.572Z,102393.91
2024-01-12T04:31:21.026Z,102396.09
2024-01-12T04:33:47.566Z,102389.31
2024-01-12T04:36:14.073Z,102389.63
2024-01-12T04:38:40.553Z,102392.22
2024-01-12T04:41:06.973Z,102399.19
2024-01-12T04:43:33.406Z,102395.25
2024-01-12T04:45:59.833Z,102399.72
2024-01-12T04:48:26.387Z,102401.16
2024-01-12T04:50:52.968Z,102394.94
2024-01-12T04:53:19.890Z,102389.78
2024-01-12T04:55:47.072Z,102399.72
2024-01-12T04:58:13.525Z,102400.66
2024-01-12T05:00:40.004Z,102398.75
2024-01-12T05:03:06.480Z,102398.44
2024-01-12T05:05:33.080Z,102396.59
2024-01-12T05:07:59.548Z,102396.09
2024-01-12T05:10:25.939Z,102388.44
2024-01-12T05:12:52.326Z,102388.53
2024-01-12T05:15:18.852Z,102381.50
2024-01-12T05:17:45.624Z,102382.50
2024-01-12T05:20:12.360Z,102384.81
2024-01-12T05:22:39.008Z,102378.19
2024-01-12T05:25:06.157Z,102378.41
2024-01-12T05:27:32.780Z,102384.03
2024-01-12T05:30:03.230Z,102384.31
2024-01-12T05:32:30.930Z,102388.81
2024-01-12T05:34:58.378Z,102375.63
2024-01-12T05:37:24.866Z,102383.56
2024-01-12T05:39:52.041Z,102375.19
2024-01-12T05:42:18.483Z,102373.44
2024-01-12T05:44:44.924Z,102380.66
2024-01-12T05:47:11.434Z,102370.13
2024-01-12T05:49:38.986Z,102371.03
2024-01-12T05:52:05.999Z,102373.38
2024-01-12T05:54:32.664Z,102373.19
2024-01-12T05:56:59.278Z,102379.00
2024-01-12T05:59:25.828Z,102381.66
2024-01-12T06:01:52.312Z,102385.97
2024-01-12T06:04:18.772Z,102385.31
2024-01-12T06:06:45.275Z,102388.81
2024-01-12T06:09:11.789Z,102391.03
2024-01-12T06:11:45.087Z,102397.41
2024-01-12T06:14:12.068Z,102405.38
2024-01-12T06:16:38.845Z,102406.94
2024-01-12T06:19:05.585Z,102410.34
2024-01-12T06:21:32.072Z,102411.47
2024-01-12T06:23:58.529Z,102411.66
2024-01-12T06:26:25.049Z,102421.88
2024-01-12T06:29:00.801Z,102415.66
2024-01-12T06:31:32.209Z,102413.28
2024-01-12T06:33:58.753Z,102410.25
2024-01-12T06:36:25.837Z,102411.31
2024-01-12T06:38:56.161Z,102406.94
2024-01-12T06:41:23.242Z,102411.47
2024-01-12T06:43:49.767Z,102413.06
2024-01-12T06:46:16.262Z,102409.81
2024-01-12T06:48:42.668Z,102419.25
2024-01-12T06:51:09.212Z,102432.88
2024-01-12T06:53:35.795Z,102429.88
2024-01-12T06:56:04.812Z,102422.41
2024-01-12T06:58:31.379Z,102427.53
2024-01-12T07:00:59.951Z,102429.47
2024-01-12T07:03:26.620Z,102427.41
2024-01-12T07:05:53.284Z,102423.41
2024-01-12T07:08:19.851Z,102417.25
2024-01-12T07:10:46.933Z,102427.38
2024-01-12T07:13:14.535Z,102421.78
2024-01-12T07:15:40.980Z,102428.78
2024-01-12T07:18:07.562Z,102424.56
2024-01-12T07:20:34.133Z,102419.09
2024-01-12T07:23:00.493Z,102420.81
2024-01-12T07:25:26.877Z,102421.06
2024-01-12T07:27:53.334Z,102409.78
2024-01-12T07:30:19.901Z,102418.75
2024-01-12T07:32:46.544Z,102409.34
2024-01-12T07:35:13.305Z,102402.50
2024-01-12T07:37:39.758Z,102401.63
2024-01-12T07:40:06.678Z,102395.09
2024-01-12T07:42:33.254Z,102402.81
2024-01-12T07:45:00.628Z,102400.56
2024-01-12T07:47:27.263Z,102388.69
2024-01-12T07:52:44.329Z,102395.22
2024-01-12T07:55:11.024Z,102393.06
2024-01-12T07:57:37.483Z,102396.66
2024-01-12T08:00:05.087Z,102401.97
2024-01-12T08:02:31.597Z,102405.13
2024-01-12T08:04:58.196Z,102417.84
2024-01-12T08:07:24.752Z,102406.00
2024-01-12T08:09:51.183Z,102416.47
2024-01-12T08:12:17.598Z,102412.66
2024-01-12T08:14:44.132Z,102420.16
2024-01-12T08:17:10.626Z,102425.28
2024-01-12T08:19:37.153Z,102423.91
2024-01-12T08:22:05.243Z,102424.28
2024-01-12T08:24:31.870Z,102427.75
2024-01-12T08:26:58.370Z,102423.66
2024-01-12T08:29:24.817Z,102428.81
2024-01-12T08:31:52.499Z,102421.22
2024-01-12T08:34:19.973Z,102418.34
2024-01-12T08:36:46.520Z,102408.22
2024-01-12T08:39:12.965Z,102408.34
2024-01-12T08:41:39.446Z,102406.00
2024-01-12T08:44:05.914Z,102410.25
2024-01-12T08:46:32.527Z,102408.38
2024-01-12T08:48:59.965Z,102406.63
2024-01-12T08:51:26.519Z,102413.69
2024-01-12T08:53:53.108Z,102418.72
2024-01-12T08:56:19.743Z,102410.00
2024-01-12T08:58:46.192Z,102412.50
2024-01-12T09:01:13.727Z,102415.97
2024-01-12T09:03:40.507Z,102418.56
2024-01-12T09:06:07.279Z,102403.97
2024-01-12T09:08:33.733Z,102409.94
2024-01-12T09:11:02.115Z,102404.59
2024-01-12T09:13:28.551Z,102408.53
2024-01-12T09:15:55.187Z,102414.84
2024-01-12T09:18:21.757Z,102425.81
2024-01-12T09:20:48.244Z,102436.16
2024-01-12T09:23:14.720Z,102437.78
2024-01-12T09:25:41.304Z,102444.56
2024-01-12T09:28:08.011Z,102443.97
2024-01-12T09:30:34.441Z,102439.63
2024-01-12T09:33:01.117Z,102434.38
2024-01-12T09:35:27.699Z,102442.47
2024-01-12T09:37:54.175Z,102454.09
2024-01-12T09:40:20.606Z,102465.06
2024-01-12T09:42:49.945Z,102450.72
2024-01-12T09:45:22.467Z,102451.84
2024-01-12T09:47:51.188Z,102440.63
2024-01-12T09:50:18.729Z,102449.88
2024-01-12T09:52:45.321Z,102443.31
2024-01-12T09:55:12.056Z,102447.47
2024-01-12T09:57:40.038Z,102458.44
2024-01-12T10:00:08.084Z,102459.41
2024-01-12T10:02:34.861Z,102446.31
2024-01-12T10:05:02.007Z,102452.84
2024-01-12T10:07:28.333Z,102452.53
2024-01-12T10:09:54.888Z,102455.28
2024-01-12T10:12:21.325Z,102454.59
2024-01-12T10:14:47.852Z,102449.94
2024-01-12T10:17:15.187Z,102456.19
2024-01-12T10:19:42.139Z,102446.94
2024-01-12T10:22:14.155Z,102444.72
2024-01-12T10:24:41.560Z,102451.41
2024-01-12T10:27:08.218Z,102450.81
2024-01-12T10:29:40.699Z,102454.34
2024-01-12T10:32:07.740Z,102449.38
2024-01-12T10:34:35.207Z,102450.75
2024-01-12T10:37:03.383Z,102446.69
2024-01-12T10:39:34.982Z,102452.22
2024-01-12T10:42:03.124Z,102438.25
2024-01-12T10:44:34.288Z,102440.16
2024-01-12T10:47:06.299Z,102434.72
2024-01-12T10:49:47.206Z,102426.78
2024-01-12T10:52:21.676Z,102428.44
2024-01-12T10:55:17.999Z,102418.69
2024-01-12T10:57:46.668Z,102407.28
2024-01-12T11:00:15.510Z,102411.94
2024-01-12T11:02:43.617Z,102410.00
2024-01-12T11:05:12.073Z,102424.66
2024-01-12T11:07:41.369Z,102418.44
2024-01-12T11:10:08.642Z,102405.38
2024-01-12T11:12:39.037Z,102401.91
2024-01-12T11:15:07.398Z,102403.28
2024-01-12T11:17:35.909Z,102391.38
2024-01-12T11:20:12.146Z,102387.81
2024-01-12T11:22:40.450Z,102393.88
2024-01-12T11:25:09.050Z,102387.41
2024-01-12T11:27:38.610Z,102387.72
2024-01-12T11:30:15.009Z,102388.56
2024-01-12T11:32:43.631Z,102377.66
2024-01-12T11:35:18.195Z,102382.00
2024-01-12T11:38:05.960Z,102386.09
2024-01-12T11:40:34.369Z,102378.16
2024-01-12T11:43:01.657Z,102366.44
2024-01-12T11:45:33.130Z,102368.03
2024-01-12T11:48:03.754Z,102361.69
2024-01-12T11:50:30.800Z,102363.34
2024-01-12T11:53:01.478Z,102357.25
2024-01-12T11:55:28.378Z,102350.94
2024-01-12T11:57:55.722Z,102347.94
2024-01-12T12:00:24.481Z,102354.50
2024-01-12T12:02:54.292Z,102351.47
2024-01-12T12:05:24.077Z,102358.31
2024-01-12T12:07:50.692Z,102351.69
2024-01-12T12:10:21.380Z,102357.72
2024-01-12T12:12:49.846Z,102354.22
2024-01-12T12:15:16.325Z,102363.06
2024-01-12T12:17:45.657Z,102359.75
2024-01-12T12:20:12.800Z,102369.06
2024-01-12T12:22:43.741Z,102360.56
2024-01-12T12:25:15.266Z,102360.56
2024-01-12T12:27:44.087Z,102354.56
2024-01-12T12:30:15.055Z,102345.56
2024-01-12T12:32:43.613Z,102346.34
2024-01-12T12:35:14.641Z,102337.56
2024-01-12T12:37:42.102Z,102333.22
2024-01-12T12:40:13.425Z,102334.03
2024-01-12T12:42:41.192Z,102338.13
2024-01-12T12:45:08.878Z,102317.34
2024-01-12T12:47:37.298Z,102326.94
2024-01-12T12:50:05.950Z,102323.03
2024-01-12T12:52:33.410Z,102310.44
2024-01-12T12:55:01.132Z,102317.28
2024-01-12T12:57:28.375Z,102321.13
2024-01-12T12:59:54.888Z,102326.03
2024-01-12T13:02:21.517Z,102327.69
2024-01-12T13:04:48.480Z,102324.28
2024-01-12T13:07:15.532Z,102321.59
2024-01-12T13:09:42.477Z,102326.00
2024-01-12T13:12:10.341Z,102316.59
2024-01-12T13:14:37.085Z,102312.88
2024-01-12T13:17:04.500Z,102306.25
2024-01-12T13:19:31.557Z,102309.81
2024-01-12T13:21:58.206Z,102299.31
2024-01-12T13:24:24.997Z,102294.94
2024-01-12T13:26:51.608Z,102288.63
2024-01-12T13:29:18.081Z,102282.63
2024-01-12T13:31:44.683Z,102282.59
2024-01-12T13:34:14.272Z,102280.97
2024-01-12T13:36:48.897Z,102276.34
2024-01-12T13:39:15.552Z,102278.25
2024-01-12T13:41:42.226Z,102270.59
2024-01-12T13:44:08.637Z,102262.13
2024-01-12T13:46:35.121Z,102259.59
2024-01-12T13:49:01.777Z,102256.53
2024-01-12T13:51:28.574Z,102257.97
2024-01-12T13:53:55.893Z,102262.00
2024-01-12T13:56:22.514Z,102262.00
2024-01-12T13:58:48.981Z,102262.00
2024-01-12T14:01:16.186Z,102255.69
2024-01-12T14:03:46.151Z,102258.44
2024-01-12T14:06:14.425Z,102265.28
2024-01-12T14:08:41.760Z,102267.34
2024-01-12T14:11:08.131Z,102254.47
2024-01-12T14:13:34.917Z,102257.75
2024-01-12T14:16:01.422Z,102249.50
2024-01-12T14:18:28.044Z,102246.50
2024-01-12T14:20:57.238Z,102247.63
2024-01-12T14:23:23.832Z,102257.25
2024-01-12T14:25:50.740Z,102258.59
2024-01-12T14:28:24.328Z,102255.31
2024-01-12T14:30:58.979Z,102249.00
2024-01-12T14:33:27.234Z,102260.84
2024-01-12T14:35:54.007Z,102257.00
2024-01-12T14:38:20.486Z,102264.38
2024-01-12T14:40:46.945Z,102265.75
2024-01-12T14:43:13.349Z,102267.94
2024-01-12T14:45:39.779Z,102261.09
2024-01-12T14:48:10.660Z,102271.22
2024-01-12T14:50:39.348Z,102249.03
2024-01-12T14:53:06.074Z,102264.75
2024-01-12T14:55:32.941Z,102266.03
2024-01-12T14:57:59.763Z,102264.91
2024-01-12T15:00:26.457Z,102262.50
2024-01-12T15:02:53.100Z,102264.16
2024-01-12T15:05:19.545Z,102255.50
2024-01-12T15:07:46.321Z,102248.50
2024-01-12T15:10:13.029Z,102250.72
2024-01-12T15:12:40.630Z,102250.94
2024-01-12T15:15:07.706Z,102243.31
2024-01-12T15:17:34.608Z,102247.97
2024-01-12T15:20:01.279Z,102244.91
2024-01-12T15:22:27.784Z,102253.72
2024-01-12T15:24:54.539Z,102252.59
2024-01-12T15:27:21.631Z,102250.69
2024-01-12T15:29:48.085Z,102253.72
2024-01-12T15:32:14.523Z,102252.88
2024-01-12T15:34:41.244Z,102248.72
2024-01-12T15:37:07.887Z,102259.38
2024-01-12T15:39:34.357Z,102261.56
2024-01-12T15:42:00.930Z,102262.94
2024-01-12T15:44:27.481Z,102253.38
2024-01-12T15:46:53.925Z,102254.66
2024-01-12T15:49:20.763Z,102259.63
2024-01-12T15:51:48.921Z,102260.38
2024-01-12T15:54:15.473Z,102258.44
2024-01-12T15:56:41.917Z,102255.50
2024-01-12T15:59:08.376Z,102242.66
2024-01-12T16:01:34.805Z,102257.72
2024-01-12T16:04:01.286Z,102264.50
2024-01-12T16:06:27.877Z,102254.06
2024-01-12T16:08:54.585Z,102260.72
2024-01-12T16:11:22.510Z,102255.72
2024-01-12T16:13:50.138Z,102251.63
2024-01-12T16:16:16.586Z,102260.63
2024-01-12T16:18:43.413Z,102261.97
2024-01-12T16:21:10.966Z,102271.56
2024-01-12T16:23:40.994Z,102265.56
2024-01-12T16:26:07.631Z,102266.66
2024-01-12T16:28:33.998Z,102267.78
2024-01-12T16:31:00.512Z,102266.63
2024-01-12T16:33:28.164Z,102269.38
2024-01-12T16:35:54.720Z,102279.84
2024-01-12T16:38:21.151Z,102277.13
2024-01-12T16:40:47.529Z,102272.47
2024-01-12T16:43:13.923Z,102269.78
2024-01-12T16:45:40.870Z,102272.19
2024-01-12T16:48:07.704Z,102266.69
2024-01-12T16:50:34.327Z,102271.06
2024-01-12T16:53:00.863Z,102254.03
2024-01-12T16:55:27.868Z,102269.94
2024-01-12T16:57:54.315Z,102258.94
2024-01-12T17:00:20.815Z,102263.66
2024-01-12T17:02:47.359Z,102257.41
2024-01-12T17:05:14.377Z,102258.41
2024-01-12T17:07:40.846Z,102254.75
2024-01-12T17:10:09.140Z,102249.16
2024-01-12T17:12:36.273Z,102255.19
2024-01-12T17:15:03.572Z,102255.81
2024-01-12T17:17:31.178Z,102243.97
2024-01-12T17:19:58.330Z,102244.44
2024-01-12T17:22:24.981Z,102252.91
2024-01-12T17:24:53.146Z,102242.00
2024-01-12T17:27:20.073Z,102249.19
2024-01-12T17:29:47.463Z,102240.38
2024-01-12T17:32:14.006Z,102245.31
2024-01-12T17:34:40.674Z,102240.38
2024-01-12T17:37:07.276Z,102246.25
2024-01-12T17:39:34.605Z,102242.97
2024-01-12T17:42:01.048Z,102234.97
2024-01-12T17:44:27.524Z,102239.59
2024-01-12T17:46:53.941Z,102237.22
2024-01-12T17:49:21.868Z,102236.06
2024-01-12T17:51:49.395Z,102238.19
2024-01-12T17:54:15.934Z,102238.75
2024-01-12T17:56:42.411Z,102234.41
2024-01-12T17:59:10.245Z,102230.84
2024-01-12T18:01:36.679Z,102231.31
2024-01-12T18:04:03.699Z,102230.75
2024-01-12T18:06:30.316Z,102228.16
2024-01-12T18:08:57.996Z,102227.56
2024-01-12T18:11:24.735Z,102237.91
2024-01-12T18:13:51.302Z,102236.59
2024-01-12T18:16:17.832Z,102229.47
2024-01-12T18:18:44.504Z,102233.88
2024-01-12T18:21:11.127Z,102232.53
2024-01-12T18:23:37.612Z,102226.44
2024-01-12T18:26:04.092Z,102230.03
2024-01-12T18:28:30.495Z,102230.66
2024-01-12T18:30:57.003Z,102224.25
2024-01-12T18:33:23.694Z,102226.81
2024-01-12T18:35:50.687Z,102215.28
2024-01-12T18:38:17.253Z,102224.53
2024-01-12T18:40:43.806Z,102223.38
2024-01-12T18:43:13.272Z,102221.19
2024-01-12T18:45:40.262Z,102223.63
2024-01-12T18:48:07.334Z,102219.53
2024-01-12T18:50:33.958Z,102229.66
2024-01-12T18:53:00.401Z,102234.91
2024-01-12T18:55:26.817Z,102223.16
2024-01-12T18:57:54.898Z,102225.06
2024-01-12T19:00:21.865Z,102223.75
2024-01-12T19:02:48.519Z,102229.00
2024-01-12T19:05:15.122Z,102221.84
2024-01-12T19:07:41.677Z,102221.88
2024-01-12T19:10:09.076Z,102224.56
2024-01-12T19:12:35.620Z,102213.06
2024-01-12T19:15:02.450Z,102220.75
2024-01-12T19:17:29.014Z,102216.84
2024-01-12T19:19:57.637Z,102220.16
2024-01-12T19:22:24.224Z,102226.78
2024-01-12T19:24:51.088Z,102223.47
2024-01-12T19:27:17.652Z,102218.56
2024-01-12T19:29:47.034Z,102224.81
2024-01-12T19:32:14.506Z,102219.06
2024-01-12T19:34:42.121Z,102213.84
2024-01-12T19:37:08.957Z,102218.00
2024-01-12T19:39:35.653Z,102208.34
2024-01-12T19:42:02.249Z,102210.84
2024-01-12T19:44:28.856Z,102203.13
2024-01-12T19:46:55.340Z,102192.38
2024-01-12T19:49:21.846Z,102193.28
2024-01-12T19:51:48.336Z,102191.34
2024-01-12T19:54:14.781Z,102195.19
2024-01-12T19:56:41.496Z,102185.00
2024-01-12T19:59:08.031Z,102197.06
2024-01-12T20:01:34.762Z,102186.13
2024-01-12T20:04:01.590Z,102184.72
2024-01-12T20:06:28.190Z,102187.72
2024-01-12T20:08:54.845Z,102183.16
2024-01-12T20:11:21.367Z,102180.13
2024-01-12T20:13:47.765Z,102191.66
2024-01-12T20:16:14.340Z,102184.22
2024-01-12T20:18:40.908Z,102187.81
2024-01-12T20:21:09.306Z,102184.00
2024-01-12T20:23:35.955Z,102184.00
2024-01-12T20:26:02.351Z,102177.16
2024-01-12T20:28:28.862Z,102175.75
2024-01-12T20:30:55.322Z,102171.34
2024-01-12T20:33:22.017Z,102175.97
2024-01-12T20:35:48.563Z,102176.22
2024-01-12T20:38:15.125Z,102177.94
2024-01-12T20:40:42.260Z,102172.16
2024-01-12T20:43:08.875Z,102182.00
2024-01-12T20:45:35.301Z,102169.94
2024-01-12T20:48:01.751Z,102172.13
2024-01-12T20:50:28.301Z,102169.13
2024-01-12T20:52:54.852Z,102166.97
2024-01-12T20:55:21.260Z,102162.91
2024-01-12T20:57:47.674Z,102161.47
2024-01-12T21:00:14.579Z,102160.38
2024-01-12T21:02:41.384Z,102160.38
2024-01-12T21:05:08.758Z,102155.44
2024-01-12T21:07:35.183Z,102164.22
2024-01-12T21:10:01.653Z,102161.19
2024-01-12T21:12:28.076Z,102156.00
2024-01-12T21:14:54.502Z,102156.56
2024-01-12T21:17:20.956Z,102154.34
2024-01-12T21:19:47.438Z,102155.44
2024-01-12T21:22:17.262Z,102157.06
2024-01-12T21:24:48.532Z,102152.41
2024-01-12T21:27:15.118Z,102159.53
2024-01-12T21:29:41.785Z,102157.66
2024-01-12T21:32:08.492Z,102153.53
2024-01-12T21:34:35.473Z,102145.59
2024-01-12T21:37:02.115Z,102142.28
2024-01-12T21:39:28.767Z,102147.47
2024-01-12T21:41:55.243Z,102147.78
2024-01-12T21:44:21.654Z,102143.38
2024-01-12T21:46:48.058Z,102137.84
2024-01-12T21:49:14.651Z,102139.22
2024-01-12T21:51:41.320Z,102138.97
2024-01-12T21:54:07.875Z,102137.88
2024-01-12T21:56:34.365Z,102136.47
2024-01-12T21:59:00.805Z,102132.63
2024-01-12T22:01:27.207Z,102134.00
2024-01-12T22:03:53.743Z,102130.72
2024-01-12T22:06:20.357Z,102132.66
2024-01-12T22:08:46.872Z,102132.66
2024-01-12T22:11:13.444Z,102129.13
2024-01-12T22:13:39.855Z,102126.38
2024-01-12T22:16:06.398Z,102121.69
2024-01-12T22:18:33.020Z,102111.56
2024-01-12T22:20:59.515Z,102110.41
2024-01-12T22:23:25.938Z,102121.34
2024-01-12T22:25:52.329Z,102112.00
2024-01-12T22:28:18.798Z,102116.44
2024-01-12T22:30:45.349Z,102119.97
2024-01-12T22:33:11.983Z,102111.53
2024-01-12T22:35:39.018Z,102108.19
2024-01-12T22:38:05.902Z,102107.09
2024-01-12T22:40:32.830Z,102106.53
2024-01-12T22:42:59.476Z,102107.38
2024-01-12T22:45:25.956Z,102101.34
2024-01-12T22:47:52.442Z,102092.81
2024-01-12T22:50:18.926Z,102087.06
2024-01-12T22:52:45.282Z,102080.50
2024-01-12T22:55:11.696Z,102081.03
2024-01-12T22:57:38.137Z,102076.94
2024-01-12T23:00:25.024Z,102079.38
2024-01-12T23:02:56.378Z,102076.38
2024-01-12T23:05:23.182Z,102076.13
2024-01-12T23:07:49.590Z,102073.88
2024-01-12T23:10:16.258Z,102069.53
2024-01-12T23:12:42.609Z,102064.56
2024-01-12T23:15:12.245Z,102059.06
2024-01-12T23:17:46.032Z,102063.47
2024-01-12T23:20:16.298Z,102060.47
2024-01-12T23:22:44.598Z,102067.34
2024-01-12T23:25:11.852Z,102058.00
2024-01-12T23:27:39.460Z,102058.56
2024-01-12T23:30:06.878Z,102062.63
2024-01-12T23:32:35.512Z,102057.16
2024-01-12T23:35:02.360Z,102048.91
2024-01-12T23:37:29.402Z,102046.19
2024-01-12T23:39:55.910Z,102041.78
2024-01-12T23:42:22.673Z,102045.34
2024-01-12T23:44:49.135Z,102037.13
2024-01-12T23:47:16.666Z,102036.84
2024-01-12T23:49:43.726Z,102036.28
2024-01-12T23:52:10.580Z,102031.91
2024-01-12T23:54:36.949Z,102031.34
2024-01-12T23:57:03.959Z,102030.78
2024-01-12T23:59:30.523Z,102014.84
